createdAt,value
2022-12-31T00:01:43.995Z,100358.95
2022-12-31T00:04:15.265Z,100358.95
2022-12-31T00:06:45.977Z,100361.17
2022-12-31T00:09:15.701Z,100353.84
2022-12-31T00:11:45.538Z,100340.58
2022-12-31T00:14:16.076Z,100353.05
2022-12-31T00:16:45.879Z,100322.77
2022-12-31T00:19:15.662Z,100322.77
2022-12-31T00:21:45.459Z,100339.27
2022-12-31T00:24:15.048Z,100333.92
2022-12-31T00:26:45.079Z,100344.04
2022-12-31T00:29:14.816Z,100344.04
2022-12-31T00:31:44.560Z,100334.50
2022-12-31T00:34:15.687Z,100338.76
2022-12-31T00:36:46.125Z,100336.72
2022-12-31T00:39:15.920Z,100347.33
2022-12-31T00:41:45.680Z,100344.19
2022-12-31T00:44:16.341Z,100345.41
2022-12-31T00:46:46.124Z,100350.95
2022-12-31T00:49:16.241Z,100354.37
2022-12-31T00:51:46.801Z,100341.31
2022-12-31T00:54:16.717Z,100355.84
2022-12-31T00:56:46.539Z,100352.98
2022-12-31T00:59:16.284Z,100376.33
2022-12-31T01:01:46.590Z,100384.64
2022-12-31T01:04:18.891Z,100369.49
2022-12-31T01:06:49.106Z,100369.20
2022-12-31T01:09:19.338Z,100373.50
2022-12-31T01:11:51.390Z,100378.55
2022-12-31T01:14:21.591Z,100378.31
2022-12-31T01:16:53.242Z,100367.06
2022-12-31T01:19:26.066Z,100363.61
2022-12-31T01:21:56.652Z,100369.48
2022-12-31T01:24:26.562Z,100354.69
2022-12-31T01:26:57.882Z,100339.86
2022-12-31T01:29:28.214Z,100339.86
2022-12-31T01:31:58.105Z,100342.36
2022-12-31T01:34:27.897Z,100346.84
2022-12-31T01:36:57.726Z,100341.30
2022-12-31T01:39:27.461Z,100335.98
2022-12-31T01:41:57.318Z,100344.11
2022-12-31T01:44:30.123Z,100356.45
2022-12-31T01:47:02.762Z,100357.48
2022-12-31T01:49:41.455Z,100361.87
2022-12-31T01:52:17.636Z,100365.46
2022-12-31T01:54:56.454Z,100366.98
2022-12-31T01:57:27.546Z,100370.75
2022-12-31T01:59:59.791Z,100382.39
2022-12-31T02:02:30.447Z,100372.37
2022-12-31T02:05:03.461Z,100377.41
2022-12-31T02:07:33.218Z,100396.02
2022-12-31T02:10:03.956Z,100419.87
2022-12-31T02:12:33.636Z,100419.87
2022-12-31T02:15:03.553Z,100443.48
2022-12-31T02:17:50.972Z,100454.67
2022-12-31T02:20:33.100Z,100429.05
2022-12-31T02:23:38.512Z,100385.45
2022-12-31T02:26:19.977Z,100360.66
2022-12-31T02:29:25.336Z,100347.75
2022-12-31T02:32:01.082Z,100371.23
2022-12-31T02:34:33.846Z,100372.97
2022-12-31T02:37:06.566Z,100376.58
2022-12-31T02:39:37.401Z,100381.27
2022-12-31T02:42:08.409Z,100384.98
2022-12-31T02:44:39.871Z,100379.98
2022-12-31T02:47:12.624Z,100379.50
2022-12-31T02:53:26.979Z,100386.64
2022-12-31T02:56:05.601Z,100369.48
2022-12-31T02:59:12.280Z,100361.72
2022-12-31T03:02:02.851Z,100367.66
2022-12-31T03:04:35.716Z,100376.02
2022-12-31T03:07:08.496Z,100376.95
2022-12-31T03:09:38.953Z,100390.97
2022-12-31T03:12:28.586Z,100392.75
2022-12-31T03:14:59.059Z,100393.59
2022-12-31T03:17:29.087Z,100377.59
2022-12-31T03:20:16.686Z,100376.09
2022-12-31T03:22:46.611Z,100379.44
2022-12-31T03:25:35.412Z,100374.66
2022-12-31T03:28:09.209Z,100378.00
2022-12-31T03:30:41.551Z,100382.45
2022-12-31T03:33:11.623Z,100373.58
2022-12-31T03:35:43.298Z,100379.81
2022-12-31T03:38:15.123Z,100378.59
2022-12-31T03:40:47.966Z,100383.30
2022-12-31T03:43:19.232Z,100383.66
2022-12-31T03:45:55.731Z,100373.09
2022-12-31T03:48:25.349Z,100369.23
2022-12-31T03:50:55.135Z,100368.91
2022-12-31T03:53:24.957Z,100375.36
2022-12-31T03:55:55.595Z,100373.66
2022-12-31T03:58:25.350Z,100373.11
2022-12-31T04:00:55.216Z,100381.03
2022-12-31T04:03:25.201Z,100380.52
2022-12-31T04:05:56.348Z,100384.02
2022-12-31T04:08:26.135Z,100385.11
2022-12-31T04:10:55.863Z,100385.55
2022-12-31T04:13:25.633Z,100392.39
2022-12-31T04:15:55.609Z,100380.97
2022-12-31T04:18:25.424Z,100380.97
2022-12-31T04:20:55.124Z,100385.82
2022-12-31T04:23:24.864Z,100389.66
2022-12-31T04:25:55.182Z,100389.01
2022-12-31T04:28:25.604Z,100373.58
2022-12-31T04:30:55.344Z,100370.20
2022-12-31T04:33:25.377Z,100382.55
2022-12-31T04:35:56.627Z,100361.27
2022-12-31T04:38:26.341Z,100374.02
2022-12-31T04:41:13.936Z,100369.20
2022-12-31T04:43:44.990Z,100359.05
2022-12-31T04:46:15.592Z,100370.67
2022-12-31T04:48:45.479Z,100346.27
2022-12-31T04:51:16.050Z,100346.27
2022-12-31T04:53:45.931Z,100349.19
2022-12-31T04:56:16.168Z,100352.66
2022-12-31T04:58:46.635Z,100358.62
2022-12-31T05:01:16.758Z,100362.47
2022-12-31T05:03:47.736Z,100353.94
2022-12-31T05:06:20.214Z,100347.45
2022-12-31T05:08:50.671Z,100348.56
2022-12-31T05:11:20.405Z,100362.55
2022-12-31T05:13:50.182Z,100375.78
2022-12-31T05:16:19.999Z,100375.78
2022-12-31T05:18:49.731Z,100393.34
2022-12-31T05:21:22.004Z,100393.34
2022-12-31T05:23:51.805Z,100380.13
2022-12-31T05:26:21.423Z,100380.13
2022-12-31T05:28:51.146Z,100388.02
2022-12-31T05:31:20.890Z,100394.19
2022-12-31T05:33:50.612Z,100396.98
2022-12-31T05:36:20.420Z,100394.48
2022-12-31T05:38:50.151Z,100393.27
2022-12-31T05:41:19.863Z,100387.62
2022-12-31T05:43:50.962Z,100381.94
2022-12-31T05:46:20.761Z,100384.38
2022-12-31T05:48:50.507Z,100392.98
2022-12-31T05:51:20.220Z,100358.84
2022-12-31T05:53:50.038Z,100358.84
2022-12-31T05:56:20.429Z,100403.96
2022-12-31T05:58:50.241Z,100409.67
2022-12-31T06:01:20.096Z,100428.13
2022-12-31T06:03:49.986Z,100402.30
2022-12-31T06:06:19.782Z,100387.13
2022-12-31T06:08:53.429Z,100396.14
2022-12-31T06:11:23.146Z,100390.66
2022-12-31T06:13:52.862Z,100393.61
2022-12-31T06:16:22.476Z,100383.05
2022-12-31T06:18:52.328Z,100394.76
2022-12-31T06:21:23.328Z,100397.13
2022-12-31T06:23:53.042Z,100395.69
2022-12-31T06:26:22.794Z,100395.05
2022-12-31T06:28:53.315Z,100405.77
2022-12-31T06:31:23.107Z,100417.16
2022-12-31T06:33:52.861Z,100413.68
2022-12-31T06:36:22.909Z,100409.34
2022-12-31T06:38:52.629Z,100401.04
2022-12-31T06:41:22.815Z,100406.58
2022-12-31T06:43:52.617Z,100415.95
2022-12-31T06:46:22.393Z,100411.27
2022-12-31T06:48:52.188Z,100411.27
2022-12-31T06:51:23.642Z,100413.05
2022-12-31T06:53:55.937Z,100407.42
2022-12-31T06:56:33.852Z,100404.10
2022-12-31T06:59:01.089Z,100407.42
2022-12-31T07:01:33.985Z,100404.78
2022-12-31T07:04:14.749Z,100390.73
2022-12-31T07:07:04.639Z,100389.47
2022-12-31T07:09:52.816Z,100394.06
2022-12-31T07:12:28.364Z,100394.06
2022-12-31T07:15:03.782Z,100384.11
2022-12-31T07:17:51.213Z,100386.20
2022-12-31T07:20:21.570Z,100396.33
2022-12-31T07:22:51.531Z,100386.36
2022-12-31T07:25:23.420Z,100384.99
2022-12-31T07:28:18.236Z,100393.05
2022-12-31T07:30:53.745Z,100392.77
2022-12-31T07:33:41.530Z,100394.77
2022-12-31T07:36:33.493Z,100403.00
2022-12-31T07:39:18.031Z,100422.50
2022-12-31T07:41:51.046Z,100401.27
2022-12-31T07:44:35.689Z,100401.27
2022-12-31T07:47:08.195Z,100422.92
2022-12-31T07:49:40.960Z,100414.83
2022-12-31T07:52:11.612Z,100407.25
2022-12-31T07:54:41.627Z,100406.52
2022-12-31T07:57:14.120Z,100394.23
2022-12-31T08:00:01.581Z,100408.50
2022-12-31T08:02:36.148Z,100395.11
2022-12-31T08:05:26.551Z,100395.11
2022-12-31T08:08:05.400Z,100397.36
2022-12-31T08:11:09.140Z,100372.19
2022-12-31T08:13:40.626Z,100389.16
2022-12-31T08:16:13.224Z,100399.64
2022-12-31T08:18:43.304Z,100399.80
2022-12-31T08:21:29.500Z,100428.62
2022-12-31T08:24:05.079Z,100477.36
2022-12-31T08:27:07.696Z,100483.70
2022-12-31T08:29:49.373Z,100497.70
2022-12-31T08:32:24.948Z,100496.80
2022-12-31T08:35:12.452Z,100504.94
2022-12-31T08:37:45.131Z,100510.98
2022-12-31T08:40:26.698Z,100501.42
2022-12-31T08:43:14.489Z,100520.28
2022-12-31T08:45:50.144Z,100536.27
2022-12-31T08:48:43.217Z,100530.53
2022-12-31T08:51:26.881Z,100539.25
2022-12-31T08:53:57.184Z,100518.22
2022-12-31T08:56:37.276Z,100572.55
2022-12-31T08:59:30.604Z,100563.20
2022-12-31T09:02:19.398Z,100550.21
2022-12-31T09:05:12.184Z,100557.44
2022-12-31T09:08:06.000Z,100568.94
2022-12-31T09:10:56.719Z,100560.05
2022-12-31T09:13:34.759Z,100584.94
2022-12-31T09:16:21.731Z,100582.71
2022-12-31T09:18:51.503Z,100584.85
2022-12-31T09:21:21.414Z,100589.05
2022-12-31T09:23:51.539Z,100599.25
2022-12-31T09:26:42.357Z,100601.47
2022-12-31T09:29:15.135Z,100595.12
2022-12-31T09:31:54.277Z,100605.75
2022-12-31T09:34:30.094Z,100619.84
2022-12-31T09:37:02.661Z,100619.95
2022-12-31T09:39:47.059Z,100610.03
2022-12-31T09:42:19.837Z,100594.66
2022-12-31T09:45:07.293Z,100615.41
2022-12-31T09:47:58.067Z,100613.80
2022-12-31T09:50:55.903Z,100612.52
2022-12-31T09:53:31.612Z,100599.59
2022-12-31T09:56:07.001Z,100630.72
2022-12-31T09:58:55.595Z,100632.92
2022-12-31T10:01:31.099Z,100629.95
2022-12-31T10:04:36.506Z,100630.41
2022-12-31T10:07:37.711Z,100634.58
2022-12-31T10:10:25.456Z,100621.81
2022-12-31T10:13:04.022Z,100636.55
2022-12-31T10:15:59.086Z,100637.27
2022-12-31T10:18:53.372Z,100622.16
2022-12-31T10:21:47.416Z,100622.16
2022-12-31T10:24:26.327Z,100636.78
2022-12-31T10:27:19.327Z,100642.57
2022-12-31T10:29:58.524Z,100641.76
2022-12-31T10:32:49.575Z,100631.42
2022-12-31T10:36:01.433Z,100628.61
2022-12-31T10:41:57.449Z,100623.47
2022-12-31T10:44:35.941Z,100614.64
2022-12-31T10:47:31.717Z,100617.92
2022-12-31T10:50:35.604Z,100622.95
2022-12-31T10:53:27.945Z,100630.41
2022-12-31T10:56:37.596Z,100617.84
2022-12-31T10:59:21.280Z,100623.09
2022-12-31T11:01:58.284Z,100619.46
2022-12-31T11:04:51.452Z,100626.92
2022-12-31T11:07:44.796Z,100623.19
2022-12-31T11:10:43.054Z,100622.43
2022-12-31T11:13:30.967Z,100620.52
2022-12-31T11:16:12.032Z,100618.30
2022-12-31T11:19:02.686Z,100630.30
2022-12-31T11:21:50.666Z,100632.09
2022-12-31T11:24:56.019Z,100625.75
2022-12-31T11:28:00.927Z,100619.63
2022-12-31T11:30:42.978Z,100632.14
2022-12-31T11:33:35.379Z,100631.55
2022-12-31T11:36:40.741Z,100642.55
2022-12-31T11:39:24.588Z,100642.55
2022-12-31T11:44:58.555Z,100643.20
2022-12-31T11:48:29.239Z,100629.82
2022-12-31T11:54:03.814Z,100619.05
2022-12-31T11:56:36.878Z,100642.44
2022-12-31T11:59:14.346Z,100647.44
2022-12-31T12:01:47.154Z,100643.63
2022-12-31T12:04:17.170Z,100649.47
2022-12-31T12:06:46.961Z,100632.40
2022-12-31T12:09:22.063Z,100646.66
2022-12-31T12:12:01.843Z,100652.22
2022-12-31T12:14:35.431Z,100662.82
2022-12-31T12:17:11.036Z,100652.95
2022-12-31T12:19:47.019Z,100648.62
2022-12-31T12:22:25.641Z,100652.83
2022-12-31T12:25:04.575Z,100653.50
2022-12-31T12:27:36.535Z,100653.30
2022-12-31T12:30:21.510Z,100646.87
2022-12-31T12:33:04.743Z,100656.00
2022-12-31T12:35:39.490Z,100653.25
2022-12-31T12:38:24.687Z,100653.25
2022-12-31T12:40:58.737Z,100664.62
2022-12-31T12:43:34.315Z,100650.45
2022-12-31T12:46:22.436Z,100658.75
2022-12-31T12:48:57.601Z,100633.55
2022-12-31T12:51:50.083Z,100633.55
2022-12-31T12:54:31.767Z,100634.80
2022-12-31T12:57:26.933Z,100637.64
2022-12-31T13:00:11.690Z,100641.30
2022-12-31T13:03:02.417Z,100633.47
2022-12-31T13:05:53.435Z,100650.91
2022-12-31T13:08:35.016Z,100636.34
2022-12-31T13:11:15.336Z,100652.83
2022-12-31T13:13:48.214Z,100644.37
2022-12-31T13:16:22.327Z,100660.78
2022-12-31T13:19:06.976Z,100642.80
2022-12-31T13:21:58.034Z,100651.75
2022-12-31T13:24:42.742Z,100656.54
2022-12-31T13:27:45.627Z,100663.87
2022-12-31T13:30:18.333Z,100660.00
2022-12-31T13:32:51.157Z,100662.99
2022-12-31T13:35:26.621Z,100663.20
2022-12-31T13:38:05.939Z,100668.33
2022-12-31T13:40:53.166Z,100649.58
2022-12-31T13:43:45.851Z,100656.20
2022-12-31T13:46:31.057Z,100652.12
2022-12-31T13:49:03.926Z,100649.58
2022-12-31T13:51:45.530Z,100651.24
2022-12-31T13:54:23.759Z,100649.03
2022-12-31T13:56:55.136Z,100640.08
2022-12-31T13:59:30.891Z,100645.25
2022-12-31T14:02:04.685Z,100645.25
2022-12-31T14:04:52.518Z,100654.03
2022-12-31T14:07:29.190Z,100630.29
2022-12-31T14:09:56.982Z,100652.91
2022-12-31T14:12:44.040Z,100653.38
2022-12-31T14:15:37.500Z,100650.70
2022-12-31T14:18:26.186Z,100663.00
2022-12-31T14:21:01.523Z,100662.32
2022-12-31T14:23:56.735Z,100670.23
2022-12-31T14:26:29.542Z,100654.41
2022-12-31T14:29:08.732Z,100654.41
2022-12-31T14:31:52.236Z,100658.86
2022-12-31T14:34:25.075Z,100665.81
2022-12-31T14:37:00.452Z,100657.03
2022-12-31T14:39:42.136Z,100656.94
2022-12-31T14:42:35.481Z,100656.44
2022-12-31T14:45:42.239Z,100672.88
2022-12-31T14:48:47.332Z,100673.16
2022-12-31T14:51:17.435Z,100665.39
2022-12-31T14:53:54.978Z,100686.53
2022-12-31T14:56:42.481Z,100675.64
2022-12-31T14:59:32.221Z,100673.83
2022-12-31T15:02:02.076Z,100678.73
2022-12-31T15:04:34.946Z,100681.33
2022-12-31T15:07:10.242Z,100683.95
2022-12-31T15:10:07.932Z,100684.98
2022-12-31T15:13:03.219Z,100694.02
2022-12-31T15:15:59.592Z,100688.07
2022-12-31T15:18:44.387Z,100697.04
2022-12-31T15:21:34.965Z,100686.95
2022-12-31T15:24:24.437Z,100699.87
2022-12-31T15:26:57.372Z,100684.44
2022-12-31T15:29:33.107Z,100686.70
2022-12-31T15:32:05.773Z,100679.79
2022-12-31T15:34:37.384Z,100679.75
2022-12-31T15:37:10.498Z,100675.02
2022-12-31T15:39:44.259Z,100675.02
2022-12-31T15:42:39.882Z,100679.45
2022-12-31T15:45:12.056Z,100685.07
2022-12-31T15:47:46.586Z,100676.41
2022-12-31T15:50:22.393Z,100680.60
2022-12-31T15:52:54.844Z,100673.66
2022-12-31T15:55:43.824Z,100687.94
2022-12-31T15:58:19.364Z,100690.44
2022-12-31T16:01:00.465Z,100689.20
2022-12-31T16:03:32.654Z,100682.81
2022-12-31T16:06:05.519Z,100686.20
2022-12-31T16:08:36.885Z,100682.91
2022-12-31T16:11:08.777Z,100681.91
2022-12-31T16:13:41.716Z,100692.11
2022-12-31T16:16:26.284Z,100688.99
2022-12-31T16:18:57.308Z,100691.07
2022-12-31T16:21:30.464Z,100679.25
2022-12-31T16:24:09.245Z,100694.78
2022-12-31T16:26:47.784Z,100686.33
2022-12-31T16:29:20.228Z,100675.13
2022-12-31T16:31:53.048Z,100666.29
2022-12-31T16:34:25.734Z,100679.86
2022-12-31T16:36:59.227Z,100673.62
2022-12-31T16:39:37.109Z,100667.37
2022-12-31T16:42:16.463Z,100668.20
2022-12-31T16:44:47.235Z,100672.16
2022-12-31T16:47:23.019Z,100648.41
2022-12-31T16:49:56.549Z,100648.41
2022-12-31T16:52:40.517Z,100659.20
2022-12-31T16:55:13.026Z,100665.05
2022-12-31T16:57:45.176Z,100665.20
2022-12-31T17:00:20.750Z,100669.70
2022-12-31T17:03:07.271Z,100662.20
2022-12-31T17:05:58.064Z,100657.08
2022-12-31T17:08:42.753Z,100654.79
2022-12-31T17:11:23.588Z,100663.83
2022-12-31T17:13:58.057Z,100648.34
2022-12-31T17:16:28.552Z,100640.30
2022-12-31T17:18:58.825Z,100640.30
2022-12-31T17:21:31.232Z,100664.73
2022-12-31T17:24:06.980Z,100662.08
2022-12-31T17:26:38.935Z,100656.95
2022-12-31T17:29:11.036Z,100646.50
2022-12-31T17:31:43.194Z,100653.03
2022-12-31T17:34:18.917Z,100653.45
2022-12-31T17:37:16.045Z,100653.45
2022-12-31T17:39:48.438Z,100658.58
2022-12-31T17:42:33.259Z,100648.42
2022-12-31T17:45:05.818Z,100649.59
2022-12-31T17:47:38.320Z,100645.38
2022-12-31T17:53:05.256Z,100643.09
2022-12-31T17:55:35.242Z,100651.45
2022-12-31T17:58:07.529Z,100637.05
2022-12-31T18:00:38.577Z,100648.09
2022-12-31T18:03:08.649Z,100641.05
2022-12-31T18:05:38.789Z,100645.42
2022-12-31T18:08:11.070Z,100652.29
2022-12-31T18:10:43.949Z,100662.50
2022-12-31T18:13:19.585Z,100664.36
2022-12-31T18:15:49.814Z,100673.28
2022-12-31T18:18:28.168Z,100662.81
2022-12-31T18:21:06.283Z,100658.08
2022-12-31T18:23:41.816Z,100671.84
2022-12-31T18:26:20.569Z,100673.77
2022-12-31T18:28:51.374Z,100670.47
2022-12-31T18:31:23.547Z,100656.95
2022-12-31T18:33:55.932Z,100657.25
2022-12-31T18:36:26.797Z,100652.95
2022-12-31T18:38:56.663Z,100652.95
2022-12-31T18:41:29.220Z,100662.84
2022-12-31T18:43:59.004Z,100661.91
2022-12-31T18:46:28.927Z,100655.36
2022-12-31T18:48:58.691Z,100661.04
2022-12-31T18:51:32.020Z,100663.42
2022-12-31T18:54:05.068Z,100667.86
2022-12-31T18:56:34.815Z,100669.09
2022-12-31T18:59:04.376Z,100669.09
2022-12-31T19:01:37.301Z,100681.60
2022-12-31T19:04:24.989Z,100691.02
2022-12-31T19:06:51.085Z,100676.16
2022-12-31T19:11:52.359Z,100685.42
2022-12-31T19:14:25.712Z,100685.42
2022-12-31T19:16:57.307Z,100676.51
2022-12-31T19:19:27.255Z,100689.70
2022-12-31T19:21:57.056Z,100689.84
2022-12-31T19:24:27.945Z,100693.89
2022-12-31T19:26:57.672Z,100707.34
2022-12-31T19:29:28.839Z,100700.81
2022-12-31T19:32:00.730Z,100694.48
2022-12-31T19:34:30.608Z,100702.84
2022-12-31T19:37:00.447Z,100695.45
2022-12-31T19:39:30.319Z,100697.23
2022-12-31T19:42:01.934Z,100703.38
2022-12-31T19:44:31.897Z,100698.56
2022-12-31T19:47:01.820Z,100694.50
2022-12-31T19:49:31.573Z,100703.24
2022-12-31T19:52:01.430Z,100693.34
2022-12-31T19:54:31.561Z,100708.05
2022-12-31T19:57:01.412Z,100710.20
2022-12-31T19:59:31.239Z,100708.47
2022-12-31T20:02:01.632Z,100722.95
2022-12-31T20:04:31.630Z,100721.34
2022-12-31T20:07:01.108Z,100705.00
2022-12-31T20:09:30.940Z,100707.13
2022-12-31T20:12:00.834Z,100710.84
2022-12-31T20:14:30.677Z,100723.30
2022-12-31T20:17:00.426Z,100723.20
2022-12-31T20:19:30.246Z,100726.68
2022-12-31T20:22:00.948Z,100719.27
2022-12-31T20:24:30.793Z,100718.00
2022-12-31T20:27:00.593Z,100721.33
2022-12-31T20:29:30.476Z,100724.34
2022-12-31T20:32:00.397Z,100728.48
2022-12-31T20:34:30.287Z,100731.39
2022-12-31T20:37:01.664Z,100731.39
2022-12-31T20:39:31.690Z,100736.73
2022-12-31T20:42:01.685Z,100735.64
2022-12-31T20:44:31.609Z,100724.84
2022-12-31T20:47:01.456Z,100724.84
2022-12-31T20:50:09.189Z,100731.83
2022-12-31T20:52:04.621Z,100743.59
2022-12-31T20:54:34.251Z,100729.67
2022-12-31T20:57:04.257Z,100720.70
2022-12-31T20:59:34.330Z,100733.98
2022-12-31T21:02:24.351Z,100715.63
2022-12-31T21:04:38.463Z,100723.09
2022-12-31T21:07:08.957Z,100722.33
2022-12-31T21:09:38.804Z,100723.80
2022-12-31T21:12:29.929Z,100733.27
2022-12-31T21:14:59.597Z,100724.05
2022-12-31T21:17:29.927Z,100733.68
2022-12-31T21:19:59.516Z,100733.09
2022-12-31T21:22:30.030Z,100735.17
2022-12-31T21:25:01.025Z,100741.42
2022-12-31T21:27:31.202Z,100737.07
2022-12-31T21:30:18.238Z,100730.23
2022-12-31T21:32:32.766Z,100747.50
2022-12-31T21:35:40.309Z,100731.66
2022-12-31T21:37:57.495Z,100747.59
2022-12-31T21:40:08.371Z,100749.42
2022-12-31T21:42:38.122Z,100755.52
2022-12-31T21:45:08.803Z,100764.06
2022-12-31T21:47:56.461Z,100764.23
2022-12-31T21:50:26.477Z,100747.78
2022-12-31T21:52:56.211Z,100755.25
2022-12-31T21:55:43.789Z,100769.72
2022-12-31T21:58:25.683Z,100774.46
2022-12-31T22:01:03.963Z,100764.22
2022-12-31T22:03:33.793Z,100748.00
2022-12-31T22:06:16.118Z,100772.30
2022-12-31T22:08:48.088Z,100770.01
2022-12-31T22:11:19.815Z,100770.05
2022-12-31T22:13:50.026Z,100766.80
2022-12-31T22:16:20.370Z,100780.42
2022-12-31T22:18:50.936Z,100790.09
2022-12-31T22:21:24.790Z,100773.00
2022-12-31T22:23:56.414Z,100787.34
2022-12-31T22:26:29.273Z,100774.38
2022-12-31T22:28:59.822Z,100776.52
2022-12-31T22:31:31.409Z,100772.05
2022-12-31T22:34:01.861Z,100774.97
2022-12-31T22:36:31.668Z,100778.27
2022-12-31T22:39:01.225Z,100781.13
2022-12-31T22:41:30.959Z,100792.73
2022-12-31T22:44:04.149Z,100792.36
2022-12-31T22:46:33.499Z,100789.73
2022-12-31T22:49:05.123Z,100786.05
2022-12-31T22:51:56.045Z,100793.78
2022-12-31T22:54:08.163Z,100803.58
2022-12-31T22:56:37.992Z,100799.36
2022-12-31T22:59:07.736Z,100802.41
2022-12-31T23:01:38.334Z,100811.25
2022-12-31T23:04:09.890Z,100808.09
2022-12-31T23:06:41.551Z,100815.25
2022-12-31T23:09:31.152Z,100822.80
2022-12-31T23:12:01.275Z,100818.93
2022-12-31T23:14:48.319Z,100829.67
2022-12-31T23:17:38.807Z,100816.80
2022-12-31T23:20:30.291Z,100847.03
2022-12-31T23:23:09.772Z,100849.40
2022-12-31T23:25:45.087Z,100833.48
2022-12-31T23:28:23.546Z,100848.34
2022-12-31T23:30:54.206Z,100834.63
2022-12-31T23:33:27.459Z,100826.55
2022-12-31T23:36:05.894Z,100831.98
2022-12-31T23:38:35.705Z,100843.25
2022-12-31T23:41:15.852Z,100839.69
2022-12-31T23:43:46.411Z,100825.19
2022-12-31T23:46:20.693Z,100825.06
2022-12-31T23:48:50.532Z,100846.98
2022-12-31T23:51:20.555Z,100838.24
2022-12-31T23:53:51.473Z,100847.91
2022-12-31T23:56:23.924Z,100840.14
2022-12-31T23:58:59.620Z,100840.84
